sensor_id;sensor_type;location;lat;lon;timestamp;P1;durP1;ratioP1;P2;durP2;ratioP2
27145;SDS011;17980;51.744;7.190;2022-10-16T00:00:20;7.27;;;4.07;;
27145;SDS011;17980;51.744;7.190;2022-10-16T00:02:57;9.77;;;4.17;;
27145;SDS011;17980;51.744;7.190;2022-10-16T00:05:25;9.57;;;4.70;;
27145;SDS011;17980;51.744;7.190;2022-10-16T00:08:01;6.87;;;4.00;;
27145;SDS011;17980;51.744;7.190;2022-10-16T00:10:29;9.00;;;4.33;;
27145;SDS011;17980;51.744;7.190;2022-10-16T00:13:06;9.03;;;4.43;;
27145;SDS011;17980;51.744;7.190;2022-10-16T00:15:34;8.63;;;4.03;;
27145;SDS011;17980;51.744;7.190;2022-10-16T00:18:11;8.97;;;4.37;;
27145;SDS011;17980;51.744;7.190;2022-10-16T00:20:40;12.80;;;4.60;;
27145;SDS011;17980;51.744;7.190;2022-10-16T00:23:17;9.03;;;4.67;;
27145;SDS011;17980;51.744;7.190;2022-10-16T00:25:44;11.17;;;5.10;;
27145;SDS011;17980;51.744;7.190;2022-10-16T00:28:13;8.03;;;4.90;;
27145;SDS011;17980;51.744;7.190;2022-10-16T00:30:40;11.17;;;4.87;;
27145;SDS011;17980;51.744;7.190;2022-10-16T00:33:17;6.23;;;4.10;;
27145;SDS011;17980;51.744;7.190;2022-10-16T00:35:45;6.87;;;4.33;;
27145;SDS011;17980;51.744;7.190;2022-10-16T00:38:12;10.33;;;5.67;;
27145;SDS011;17980;51.744;7.190;2022-10-16T00:40:39;14.03;;;5.37;;
27145;SDS011;17980;51.744;7.190;2022-10-16T00:43:33;6.70;;;4.73;;
27145;SDS011;17980;51.744;7.190;2022-10-16T00:46:03;8.20;;;5.90;;
27145;SDS011;17980;51.744;7.190;2022-10-16T00:48:33;8.63;;;4.93;;
27145;SDS011;17980;51.744;7.190;2022-10-16T00:51:00;6.37;;;4.80;;
27145;SDS011;17980;51.744;7.190;2022-10-16T00:53:37;7.33;;;4.53;;
27145;SDS011;17980;51.744;7.190;2022-10-16T00:56:06;4.80;;;4.27;;
27145;SDS011;17980;51.744;7.190;2022-10-16T00:58:43;8.70;;;5.37;;
27145;SDS011;17980;51.744;7.190;2022-10-16T01:01:10;12.57;;;5.30;;
27145;SDS011;17980;51.744;7.190;2022-10-16T01:03:47;9.00;;;5.00;;
27145;SDS011;17980;51.744;7.190;2022-10-16T01:06:24;7.37;;;4.47;;
27145;SDS011;17980;51.744;7.190;2022-10-16T01:09:06;8.00;;;4.63;;
27145;SDS011;17980;51.744;7.190;2022-10-16T01:11:38;8.60;;;5.33;;
27145;SDS011;17980;51.744;7.190;2022-10-16T01:14:21;13.93;;;4.67;;
27145;SDS011;17980;51.744;7.190;2022-10-16T01:16:52;7.37;;;4.30;;
27145;SDS011;17980;51.744;7.190;2022-10-16T01:19:30;7.43;;;4.50;;
27145;SDS011;17980;51.744;7.190;2022-10-16T01:22:11;9.37;;;4.50;;
27145;SDS011;17980;51.744;7.190;2022-10-16T01:24:40;9.70;;;5.03;;
27145;SDS011;17980;51.744;7.190;2022-10-16T01:27:11;8.13;;;3.67;;
27145;SDS011;17980;51.744;7.190;2022-10-16T01:29:42;9.57;;;4.20;;
27145;SDS011;17980;51.744;7.190;2022-10-16T01:32:15;9.87;;;4.00;;
27145;SDS011;17980;51.744;7.190;2022-10-16T01:34:53;7.30;;;3.53;;
27145;SDS011;17980;51.744;7.190;2022-10-16T01:37:31;6.73;;;3.63;;
27145;SDS011;17980;51.744;7.190;2022-10-16T01:39:58;7.33;;;3.80;;
27145;SDS011;17980;51.744;7.190;2022-10-16T01:42:36;8.67;;;3.97;;
27145;SDS011;17980;51.744;7.190;2022-10-16T01:45:07;7.37;;;4.43;;
27145;SDS011;17980;51.744;7.190;2022-10-16T01:47:37;9.80;;;3.87;;
27145;SDS011;17980;51.744;7.190;2022-10-16T01:50:14;8.97;;;3.80;;
27145;SDS011;17980;51.744;7.190;2022-10-16T01:52:44;6.83;;;3.90;;
27145;SDS011;17980;51.744;7.190;2022-10-16T01:55:22;11.00;;;3.50;;
27145;SDS011;17980;51.744;7.190;2022-10-16T01:57:53;14.27;;;4.17;;
27145;SDS011;17980;51.744;7.190;2022-10-16T02:00:30;6.73;;;3.93;;
27145;SDS011;17980;51.744;7.190;2022-10-16T02:02:58;5.20;;;3.33;;
27145;SDS011;17980;51.744;7.190;2022-10-16T02:05:38;8.90;;;3.67;;
27145;SDS011;17980;51.744;7.190;2022-10-16T02:08:07;7.57;;;3.90;;
27145;SDS011;17980;51.744;7.190;2022-10-16T02:10:34;10.33;;;4.20;;
27145;SDS011;17980;51.744;7.190;2022-10-16T02:13:12;10.90;;;3.87;;
27145;SDS011;17980;51.744;7.190;2022-10-16T02:15:42;6.23;;;4.07;;
27145;SDS011;17980;51.744;7.190;2022-10-16T02:18:19;7.53;;;3.50;;
27145;SDS011;17980;51.744;7.190;2022-10-16T02:20:49;6.23;;;3.73;;
27145;SDS011;17980;51.744;7.190;2022-10-16T02:23:29;6.17;;;3.60;;
27145;SDS011;17980;51.744;7.190;2022-10-16T02:26:00;4.53;;;3.37;;
27145;SDS011;17980;51.744;7.190;2022-10-16T02:28:40;6.33;;;3.17;;
27145;SDS011;17980;51.744;7.190;2022-10-16T02:31:11;3.87;;;2.80;;
27145;SDS011;17980;51.744;7.190;2022-10-16T02:33:49;6.23;;;3.17;;
27145;SDS011;17980;51.744;7.190;2022-10-16T02:36:19;3.70;;;3.23;;
27145;SDS011;17980;51.744;7.190;2022-10-16T02:38:46;7.80;;;3.23;;
27145;SDS011;17980;51.744;7.190;2022-10-16T02:41:14;5.30;;;2.63;;
27145;SDS011;17980;51.744;7.190;2022-10-16T02:43:51;5.23;;;2.90;;
27145;SDS011;17980;51.744;7.190;2022-10-16T02:46:19;7.87;;;3.40;;
27145;SDS011;17980;51.744;7.190;2022-10-16T02:48:46;3.37;;;2.63;;
27145;SDS011;17980;51.744;7.190;2022-10-16T02:51:15;6.17;;;2.63;;
27145;SDS011;17980;51.744;7.190;2022-10-16T02:53:52;7.00;;;2.43;;
27145;SDS011;17980;51.744;7.190;2022-10-16T02:56:19;4.10;;;2.37;;
27145;SDS011;17980;51.744;7.190;2022-10-16T02:58:46;5.60;;;2.00;;
27145;SDS011;17980;51.744;7.190;2022-10-16T03:01:13;5.60;;;2.67;;
27145;SDS011;17980;51.744;7.190;2022-10-16T03:03:50;8.90;;;2.40;;
27145;SDS011;17980;51.744;7.190;2022-10-16T03:06:17;4.03;;;2.13;;
27145;SDS011;17980;51.744;7.190;2022-10-16T03:08:45;5.00;;;1.70;;
27145;SDS011;17980;51.744;7.190;2022-10-16T03:11:12;2.53;;;1.80;;
27145;SDS011;17980;51.744;7.190;2022-10-16T03:13:49;5.13;;;1.83;;
27145;SDS011;17980;51.744;7.190;2022-10-16T03:16:16;8.93;;;2.10;;
27145;SDS011;17980;51.744;7.190;2022-10-16T03:18:53;2.50;;;1.57;;
27145;SDS011;17980;51.744;7.190;2022-10-16T03:21:20;4.60;;;2.00;;
27145;SDS011;17980;51.744;7.190;2022-10-16T03:23:57;4.37;;;1.50;;
27145;SDS011;17980;51.744;7.190;2022-10-16T03:26:24;4.13;;;1.43;;
27145;SDS011;17980;51.744;7.190;2022-10-16T03:28:52;2.20;;;1.70;;
27145;SDS011;17980;51.744;7.190;2022-10-16T03:31:38;6.13;;;1.60;;
27145;SDS011;17980;51.744;7.190;2022-10-16T03:34:06;3.13;;;1.13;;
27145;SDS011;17980;51.744;7.190;2022-10-16T03:36:33;3.00;;;1.63;;
27145;SDS011;17980;51.744;7.190;2022-10-16T03:39:01;2.57;;;1.00;;
27145;SDS011;17980;51.744;7.190;2022-10-16T03:41:37;4.90;;;1.50;;
27145;SDS011;17980;51.744;7.190;2022-10-16T03:44:05;2.27;;;1.13;;
27145;SDS011;17980;51.744;7.190;2022-10-16T03:46:32;4.27;;;1.20;;
27145;SDS011;17980;51.744;7.190;2022-10-16T03:48:59;8.50;;;1.40;;
27145;SDS011;17980;51.744;7.190;2022-10-16T03:51:36;1.77;;;0.93;;
27145;SDS011;17980;51.744;7.190;2022-10-16T03:54:04;3.30;;;1.33;;
27145;SDS011;17980;51.744;7.190;2022-10-16T03:56:41;3.37;;;0.97;;
27145;SDS011;17980;51.744;7.190;2022-10-16T03:59:08;3.83;;;0.80;;
27145;SDS011;17980;51.744;7.190;2022-10-16T04:01:44;2.50;;;1.20;;
27145;SDS011;17980;51.744;7.190;2022-10-16T04:04:12;1.70;;;1.00;;
27145;SDS011;17980;51.744;7.190;2022-10-16T04:06:39;4.20;;;1.10;;
27145;SDS011;17980;51.744;7.190;2022-10-16T04:09:06;2.77;;;0.90;;
27145;SDS011;17980;51.744;7.190;2022-10-16T04:11:43;0.97;;;0.80;;
27145;SDS011;17980;51.744;7.190;2022-10-16T04:14:10;2.20;;;1.07;;
27145;SDS011;17980;51.744;7.190;2022-10-16T04:16:37;3.17;;;0.70;;
27145;SDS011;17980;51.744;7.190;2022-10-16T04:19:04;4.47;;;1.20;;
27145;SDS011;17980;51.744;7.190;2022-10-16T04:21:41;2.40;;;0.90;;
27145;SDS011;17980;51.744;7.190;2022-10-16T04:24:08;0.80;;;0.70;;
27145;SDS011;17980;51.744;7.190;2022-10-16T04:26:37;2.03;;;0.70;;
27145;SDS011;17980;51.744;7.190;2022-10-16T04:29:04;3.03;;;0.60;;
27145;SDS011;17980;51.744;7.190;2022-10-16T04:31:41;1.67;;;0.67;;
27145;SDS011;17980;51.744;7.190;2022-10-16T04:34:08;2.10;;;0.80;;
27145;SDS011;17980;51.744;7.190;2022-10-16T04:36:35;0.80;;;0.60;;
27145;SDS011;17980;51.744;7.190;2022-10-16T04:39:02;6.23;;;0.70;;
27145;SDS011;17980;51.744;7.190;2022-10-16T04:41:39;2.63;;;0.70;;
27145;SDS011;17980;51.744;7.190;2022-10-16T04:44:07;2.50;;;0.63;;
27145;SDS011;17980;51.744;7.190;2022-10-16T04:46:34;2.50;;;0.93;;
27145;SDS011;17980;51.744;7.190;2022-10-16T04:49:01;4.53;;;0.60;;
27145;SDS011;17980;51.744;7.190;2022-10-16T04:51:38;1.33;;;0.70;;
27145;SDS011;17980;51.744;7.190;2022-10-16T04:54:05;1.00;;;0.40;;
27145;SDS011;17980;51.744;7.190;2022-10-16T04:56:32;5.63;;;0.70;;
27145;SDS011;17980;51.744;7.190;2022-10-16T04:59:01;1.97;;;0.63;;
27145;SDS011;17980;51.744;7.190;2022-10-16T05:01:38;3.30;;;0.80;;
27145;SDS011;17980;51.744;7.190;2022-10-16T05:04:05;1.70;;;0.73;;
27145;SDS011;17980;51.744;7.190;2022-10-16T05:06:33;0.70;;;0.60;;
27145;SDS011;17980;51.744;7.190;2022-10-16T05:09:00;1.00;;;0.57;;
27145;SDS011;17980;51.744;7.190;2022-10-16T05:11:37;0.87;;;0.50;;
27145;SDS011;17980;51.744;7.190;2022-10-16T05:14:04;1.10;;;0.50;;
27145;SDS011;17980;51.744;7.190;2022-10-16T05:16:31;3.53;;;0.60;;
27145;SDS011;17980;51.744;7.190;2022-10-16T05:18:58;2.83;;;0.70;;
27145;SDS011;17980;51.744;7.190;2022-10-16T05:21:35;4.40;;;0.90;;
27145;SDS011;17980;51.744;7.190;2022-10-16T05:24:03;2.30;;;0.90;;
27145;SDS011;17980;51.744;7.190;2022-10-16T05:26:30;1.57;;;0.90;;
27145;SDS011;17980;51.744;7.190;2022-10-16T05:28:57;4.50;;;0.57;;
27145;SDS011;17980;51.744;7.190;2022-10-16T05:31:34;1.47;;;0.60;;
27145;SDS011;17980;51.744;7.190;2022-10-16T05:34:01;1.57;;;0.70;;
27145;SDS011;17980;51.744;7.190;2022-10-16T05:36:29;1.33;;;0.50;;
27145;SDS011;17980;51.744;7.190;2022-10-16T05:38:56;1.90;;;0.70;;
27145;SDS011;17980;51.744;7.190;2022-10-16T05:41:33;3.83;;;0.70;;
27145;SDS011;17980;51.744;7.190;2022-10-16T05:44:00;0.80;;;0.70;;
27145;SDS011;17980;51.744;7.190;2022-10-16T05:46:31;5.07;;;1.33;;
27145;SDS011;17980;51.744;7.190;2022-10-16T05:48:58;1.03;;;0.57;;
27145;SDS011;17980;51.744;7.190;2022-10-16T05:51:35;3.97;;;0.80;;
27145;SDS011;17980;51.744;7.190;2022-10-16T05:54:02;2.43;;;0.63;;
27145;SDS011;17980;51.744;7.190;2022-10-16T05:56:30;0.97;;;0.60;;
27145;SDS011;17980;51.744;7.190;2022-10-16T05:58:57;1.07;;;0.50;;
27145;SDS011;17980;51.744;7.190;2022-10-16T06:01:34;3.13;;;0.83;;
27145;SDS011;17980;51.744;7.190;2022-10-16T06:04:01;2.83;;;0.50;;
27145;SDS011;17980;51.744;7.190;2022-10-16T06:06:29;2.67;;;0.60;;
27145;SDS011;17980;51.744;7.190;2022-10-16T06:08:56;5.93;;;1.13;;
27145;SDS011;17980;51.744;7.190;2022-10-16T06:11:33;2.30;;;0.80;;
27145;SDS011;17980;51.744;7.190;2022-10-16T06:14:01;6.53;;;1.00;;
27145;SDS011;17980;51.744;7.190;2022-10-16T06:16:30;2.97;;;0.70;;
27145;SDS011;17980;51.744;7.190;2022-10-16T06:18:57;3.37;;;0.90;;
27145;SDS011;17980;51.744;7.190;2022-10-16T06:21:34;1.13;;;0.70;;
27145;SDS011;17980;51.744;7.190;2022-10-16T06:24:01;2.00;;;0.70;;
27145;SDS011;17980;51.744;7.190;2022-10-16T06:26:29;4.57;;;2.33;;
27145;SDS011;17980;51.744;7.190;2022-10-16T06:28:57;6.77;;;1.50;;
27145;SDS011;17980;51.744;7.190;2022-10-16T06:31:34;3.53;;;1.50;;
27145;SDS011;17980;51.744;7.190;2022-10-16T06:34:01;2.43;;;1.40;;
27145;SDS011;17980;51.744;7.190;2022-10-16T06:36:30;2.13;;;1.60;;
27145;SDS011;17980;51.744;7.190;2022-10-16T06:38:57;8.10;;;0.97;;
27145;SDS011;17980;51.744;7.190;2022-10-16T06:41:34;4.33;;;1.00;;
27145;SDS011;17980;51.744;7.190;2022-10-16T06:44:04;10.63;;;0.90;;
27145;SDS011;17980;51.744;7.190;2022-10-16T06:46:41;3.90;;;0.80;;
27145;SDS011;17980;51.744;7.190;2022-10-16T06:49:08;5.13;;;0.80;;
27145;SDS011;17980;51.744;7.190;2022-10-16T06:51:36;1.80;;;0.70;;
27145;SDS011;17980;51.744;7.190;2022-10-16T06:54:14;1.93;;;0.90;;
27145;SDS011;17980;51.744;7.190;2022-10-16T06:56:42;4.27;;;1.00;;
27145;SDS011;17980;51.744;7.190;2022-10-16T06:59:09;1.97;;;1.00;;
27145;SDS011;17980;51.744;7.190;2022-10-16T07:01:36;3.53;;;1.00;;
27145;SDS011;17980;51.744;7.190;2022-10-16T07:04:13;6.07;;;1.53;;
27145;SDS011;17980;51.744;7.190;2022-10-16T07:06:40;3.17;;;1.60;;
27145;SDS011;17980;51.744;7.190;2022-10-16T07:09:08;3.73;;;1.40;;
27145;SDS011;17980;51.744;7.190;2022-10-16T07:11:37;1.70;;;1.13;;
27145;SDS011;17980;51.744;7.190;2022-10-16T07:14:18;5.90;;;1.80;;
27145;SDS011;17980;51.744;7.190;2022-10-16T07:16:44;2.93;;;1.07;;
27145;SDS011;17980;51.744;7.190;2022-10-16T07:19:12;2.50;;;1.37;;
27145;SDS011;17980;51.744;7.190;2022-10-16T07:21:42;2.47;;;1.00;;
27145;SDS011;17980;51.744;7.190;2022-10-16T07:24:19;4.77;;;0.90;;
27145;SDS011;17980;51.744;7.190;2022-10-16T07:26:46;1.33;;;1.23;;
27145;SDS011;17980;51.744;7.190;2022-10-16T07:29:14;2.97;;;2.00;;
27145;SDS011;17980;51.744;7.190;2022-10-16T07:31:42;1.73;;;1.10;;
27145;SDS011;17980;51.744;7.190;2022-10-16T07:34:20;3.30;;;1.17;;
27145;SDS011;17980;51.744;7.190;2022-10-16T07:36:48;7.20;;;1.10;;
27145;SDS011;17980;51.744;7.190;2022-10-16T07:39:15;3.10;;;0.90;;
27145;SDS011;17980;51.744;7.190;2022-10-16T07:41:43;2.90;;;1.23;;
27145;SDS011;17980;51.744;7.190;2022-10-16T07:44:19;3.67;;;1.30;;
27145;SDS011;17980;51.744;7.190;2022-10-16T07:46:47;6.10;;;2.13;;
27145;SDS011;17980;51.744;7.190;2022-10-16T07:49:14;5.33;;;1.80;;
27145;SDS011;17980;51.744;7.190;2022-10-16T07:51:42;2.17;;;1.03;;
27145;SDS011;17980;51.744;7.190;2022-10-16T07:54:09;2.37;;;0.90;;
27145;SDS011;17980;51.744;7.190;2022-10-16T07:56:37;4.20;;;1.30;;
27145;SDS011;17980;51.744;7.190;2022-10-16T07:59:14;4.40;;;1.30;;
27145;SDS011;17980;51.744;7.190;2022-10-16T08:01:41;1.23;;;1.10;;
27145;SDS011;17980;51.744;7.190;2022-10-16T08:04:08;5.37;;;1.13;;
27145;SDS011;17980;51.744;7.190;2022-10-16T08:06:36;10.37;;;3.33;;
27145;SDS011;17980;51.744;7.190;2022-10-16T08:09:13;4.27;;;0.97;;
27145;SDS011;17980;51.744;7.190;2022-10-16T08:11:41;2.67;;;0.80;;
27145;SDS011;17980;51.744;7.190;2022-10-16T08:14:08;5.43;;;2.10;;
27145;SDS011;17980;51.744;7.190;2022-10-16T08:16:35;2.70;;;0.90;;
27145;SDS011;17980;51.744;7.190;2022-10-16T08:19:12;1.47;;;0.90;;
27145;SDS011;17980;51.744;7.190;2022-10-16T08:21:41;9.33;;;2.87;;
27145;SDS011;17980;51.744;7.190;2022-10-16T08:26:44;2.80;;;0.97;;
27145;SDS011;17980;51.744;7.190;2022-10-16T08:29:12;2.83;;;0.90;;
27145;SDS011;17980;51.744;7.190;2022-10-16T08:31:49;0.60;;;0.60;;
27145;SDS011;17980;51.744;7.190;2022-10-16T08:34:17;5.00;;;0.70;;
27145;SDS011;17980;51.744;7.190;2022-10-16T08:36:44;3.37;;;0.80;;
27145;SDS011;17980;51.744;7.190;2022-10-16T08:39:21;1.80;;;0.80;;
27145;SDS011;17980;51.744;7.190;2022-10-16T08:42:02;6.70;;;0.90;;
27145;SDS011;17980;51.744;7.190;2022-10-16T08:50:50;6.23;;;0.90;;
27145;SDS011;17980;51.744;7.190;2022-10-16T08:53:19;6.73;;;2.50;;
27145;SDS011;17980;51.744;7.190;2022-10-16T08:55:50;13.10;;;4.80;;
27145;SDS011;17980;51.744;7.190;2022-10-16T08:58:28;6.07;;;1.70;;
27145;SDS011;17980;51.744;7.190;2022-10-16T09:00:57;1.90;;;0.70;;
27145;SDS011;17980;51.744;7.190;2022-10-16T09:03:39;3.40;;;0.70;;
27145;SDS011;17980;51.744;7.190;2022-10-16T09:09:00;6.77;;;0.90;;
27145;SDS011;17980;51.744;7.190;2022-10-16T09:11:34;3.90;;;0.90;;
27145;SDS011;17980;51.744;7.190;2022-10-16T09:14:18;3.60;;;0.77;;
27145;SDS011;17980;51.744;7.190;2022-10-16T09:16:52;3.93;;;1.20;;
27145;SDS011;17980;51.744;7.190;2022-10-16T09:19:31;16.80;;;6.90;;
27145;SDS011;17980;51.744;7.190;2022-10-16T09:22:02;2.07;;;0.70;;
27145;SDS011;17980;51.744;7.190;2022-10-16T09:24:44;6.03;;;0.60;;
27145;SDS011;17980;51.744;7.190;2022-10-16T09:27:12;2.07;;;1.00;;
27145;SDS011;17980;51.744;7.190;2022-10-16T09:29:55;3.63;;;0.60;;
27145;SDS011;17980;51.744;7.190;2022-10-16T09:32:19;1.47;;;0.50;;
27145;SDS011;17980;51.744;7.190;2022-10-16T09:34:49;4.63;;;0.93;;
27145;SDS011;17980;51.744;7.190;2022-10-16T09:37:27;14.90;;;6.20;;
27145;SDS011;17980;51.744;7.190;2022-10-16T09:39:55;19.83;;;10.00;;
27145;SDS011;17980;51.744;7.190;2022-10-16T09:42:23;4.67;;;2.03;;
27145;SDS011;17980;51.744;7.190;2022-10-16T09:44:53;20.47;;;8.83;;
27145;SDS011;17980;51.744;7.190;2022-10-16T09:47:30;11.47;;;4.97;;
27145;SDS011;17980;51.744;7.190;2022-10-16T09:50:00;5.00;;;2.30;;
27145;SDS011;17980;51.744;7.190;2022-10-16T09:52:32;9.30;;;3.13;;
27145;SDS011;17980;51.744;7.190;2022-10-16T09:55:00;6.10;;;1.33;;
27145;SDS011;17980;51.744;7.190;2022-10-16T09:57:37;2.70;;;0.70;;
27145;SDS011;17980;51.744;7.190;2022-10-16T10:00:16;4.10;;;1.10;;
27145;SDS011;17980;51.744;7.190;2022-10-16T10:02:53;3.70;;;0.70;;
27145;SDS011;17980;51.744;7.190;2022-10-16T10:05:21;4.93;;;1.23;;
27145;SDS011;17980;51.744;7.190;2022-10-16T10:07:58;1.50;;;0.63;;
27145;SDS011;17980;51.744;7.190;2022-10-16T10:10:30;3.03;;;0.67;;
27145;SDS011;17980;51.744;7.190;2022-10-16T10:12:59;9.17;;;6.10;;
27145;SDS011;17980;51.744;7.190;2022-10-16T10:15:27;8.60;;;3.70;;
27145;SDS011;17980;51.744;7.190;2022-10-16T10:18:16;2.10;;;0.60;;
27145;SDS011;17980;51.744;7.190;2022-10-16T10:20:45;6.23;;;2.70;;
27145;SDS011;17980;51.744;7.190;2022-10-16T10:23:20;2.63;;;0.60;;
27145;SDS011;17980;51.744;7.190;2022-10-16T10:25:50;4.00;;;3.07;;
27145;SDS011;17980;51.744;7.190;2022-10-16T10:28:49;2.93;;;1.67;;
27145;SDS011;17980;51.744;7.190;2022-10-16T10:31:25;3.93;;;2.33;;
27145;SDS011;17980;51.744;7.190;2022-10-16T10:33:57;5.63;;;1.40;;
27145;SDS011;17980;51.744;7.190;2022-10-16T10:36:28;2.87;;;0.80;;
27145;SDS011;17980;51.744;7.190;2022-10-16T10:39:07;2.00;;;0.60;;
27145;SDS011;17980;51.744;7.190;2022-10-16T10:41:48;2.80;;;0.70;;
27145;SDS011;17980;51.744;7.190;2022-10-16T10:44:37;2.60;;;0.50;;
27145;SDS011;17980;51.744;7.190;2022-10-16T10:47:13;1.87;;;0.40;;
27145;SDS011;17980;51.744;7.190;2022-10-16T10:49:47;1.37;;;0.50;;
27145;SDS011;17980;51.744;7.190;2022-10-16T10:52:28;6.50;;;1.07;;
27145;SDS011;17980;51.744;7.190;2022-10-16T10:55:16;1.70;;;0.43;;
27145;SDS011;17980;51.744;7.190;2022-10-16T10:57:56;1.50;;;0.40;;
27145;SDS011;17980;51.744;7.190;2022-10-16T11:00:39;1.10;;;0.40;;
27145;SDS011;17980;51.744;7.190;2022-10-16T11:03:13;1.83;;;0.60;;
27145;SDS011;17980;51.744;7.190;2022-10-16T11:05:44;3.10;;;0.70;;
27145;SDS011;17980;51.744;7.190;2022-10-16T11:08:22;3.17;;;0.83;;
27145;SDS011;17980;51.744;7.190;2022-10-16T11:10:54;3.80;;;0.70;;
27145;SDS011;17980;51.744;7.190;2022-10-16T11:13:26;1.50;;;0.43;;
27145;SDS011;17980;51.744;7.190;2022-10-16T11:15:58;3.00;;;0.80;;
27145;SDS011;17980;51.744;7.190;2022-10-16T11:18:39;2.37;;;0.50;;
27145;SDS011;17980;51.744;7.190;2022-10-16T11:21:10;1.77;;;0.40;;
27145;SDS011;17980;51.744;7.190;2022-10-16T11:23:41;1.50;;;0.40;;
27145;SDS011;17980;51.744;7.190;2022-10-16T11:26:20;1.53;;;0.60;;
27145;SDS011;17980;51.744;7.190;2022-10-16T11:28:50;2.20;;;0.50;;
27145;SDS011;17980;51.744;7.190;2022-10-16T11:31:28;4.40;;;0.40;;
27145;SDS011;17980;51.744;7.190;2022-10-16T11:34:00;3.23;;;0.73;;
27145;SDS011;17980;51.744;7.190;2022-10-16T11:36:32;2.17;;;0.40;;
27145;SDS011;17980;51.744;7.190;2022-10-16T11:39:15;3.27;;;0.60;;
27145;SDS011;17980;51.744;7.190;2022-10-16T11:41:47;3.17;;;0.63;;
27145;SDS011;17980;51.744;7.190;2022-10-16T11:44:27;1.50;;;0.50;;
27145;SDS011;17980;51.744;7.190;2022-10-16T11:47:05;1.67;;;0.43;;
27145;SDS011;17980;51.744;7.190;2022-10-16T11:49:43;2.97;;;0.50;;
27145;SDS011;17980;51.744;7.190;2022-10-16T11:52:13;8.00;;;0.93;;
27145;SDS011;17980;51.744;7.190;2022-10-16T11:54:44;3.30;;;0.53;;
27145;SDS011;17980;51.744;7.190;2022-10-16T11:57:16;1.40;;;0.50;;
27145;SDS011;17980;51.744;7.190;2022-10-16T11:59:46;4.13;;;0.50;;
27145;SDS011;17980;51.744;7.190;2022-10-16T12:02:35;0.60;;;0.30;;
27145;SDS011;17980;51.744;7.190;2022-10-16T12:05:13;1.27;;;0.30;;
27145;SDS011;17980;51.744;7.190;2022-10-16T12:07:54;2.27;;;0.40;;
27145;SDS011;17980;51.744;7.190;2022-10-16T12:10:27;5.77;;;0.47;;
27145;SDS011;17980;51.744;7.190;2022-10-16T12:13:05;0.70;;;0.40;;
27145;SDS011;17980;51.744;7.190;2022-10-16T12:15:51;2.33;;;0.43;;
27145;SDS011;17980;51.744;7.190;2022-10-16T12:18:28;2.10;;;0.40;;
27145;SDS011;17980;51.744;7.190;2022-10-16T12:20:55;5.90;;;0.93;;
27145;SDS011;17980;51.744;7.190;2022-10-16T12:23:24;2.50;;;0.80;;
27145;SDS011;17980;51.744;7.190;2022-10-16T12:25:54;3.43;;;0.43;;
27145;SDS011;17980;51.744;7.190;2022-10-16T12:28:31;1.90;;;0.40;;
27145;SDS011;17980;51.744;7.190;2022-10-16T12:31:00;15.00;;;1.83;;
27145;SDS011;17980;51.744;7.190;2022-10-16T12:33:30;2.10;;;0.50;;
27145;SDS011;17980;51.744;7.190;2022-10-16T12:35:59;5.10;;;0.57;;
27145;SDS011;17980;51.744;7.190;2022-10-16T12:38:37;3.87;;;0.53;;
27145;SDS011;17980;51.744;7.190;2022-10-16T12:41:07;1.97;;;0.40;;
27145;SDS011;17980;51.744;7.190;2022-10-16T12:43:37;5.37;;;0.50;;
27145;SDS011;17980;51.744;7.190;2022-10-16T12:46:21;1.53;;;0.80;;
27145;SDS011;17980;51.744;7.190;2022-10-16T12:49:21;8.17;;;5.60;;
27145;SDS011;17980;51.744;7.190;2022-10-16T12:51:51;4.90;;;0.90;;
27145;SDS011;17980;51.744;7.190;2022-10-16T12:54:19;4.97;;;0.83;;
27145;SDS011;17980;51.744;7.190;2022-10-16T12:57:01;3.23;;;0.40;;
27145;SDS011;17980;51.744;7.190;2022-10-16T12:59:35;4.17;;;0.50;;
27145;SDS011;17980;51.744;7.190;2022-10-16T13:07:28;2.30;;;0.57;;
27145;SDS011;17980;51.744;7.190;2022-10-16T13:10:08;2.40;;;0.60;;
27145;SDS011;17980;51.744;7.190;2022-10-16T13:12:51;2.97;;;0.50;;
27145;SDS011;17980;51.744;7.190;2022-10-16T13:18:38;4.70;;;0.63;;
27145;SDS011;17980;51.744;7.190;2022-10-16T13:21:08;5.03;;;0.70;;
27145;SDS011;17980;51.744;7.190;2022-10-16T13:23:42;1.87;;;0.50;;
27145;SDS011;17980;51.744;7.190;2022-10-16T13:26:22;2.27;;;0.50;;
27145;SDS011;17980;51.744;7.190;2022-10-16T13:28:54;3.37;;;0.60;;
27145;SDS011;17980;51.744;7.190;2022-10-16T13:31:36;2.77;;;0.50;;
27145;SDS011;17980;51.744;7.190;2022-10-16T13:34:05;4.50;;;0.70;;
27145;SDS011;17980;51.744;7.190;2022-10-16T13:36:35;1.60;;;0.50;;
27145;SDS011;17980;51.744;7.190;2022-10-16T13:39:21;27.87;;;2.97;;
27145;SDS011;17980;51.744;7.190;2022-10-16T13:41:58;3.00;;;0.60;;
27145;SDS011;17980;51.744;7.190;2022-10-16T13:44:29;1.67;;;0.50;;
27145;SDS011;17980;51.744;7.190;2022-10-16T13:47:00;1.53;;;0.50;;
27145;SDS011;17980;51.744;7.190;2022-10-16T13:49:37;3.60;;;0.50;;
27145;SDS011;17980;51.744;7.190;2022-10-16T13:52:04;2.37;;;0.40;;
27145;SDS011;17980;51.744;7.190;2022-10-16T13:54:31;2.80;;;0.53;;
27145;SDS011;17980;51.744;7.190;2022-10-16T13:57:04;1.87;;;0.67;;
27145;SDS011;17980;51.744;7.190;2022-10-16T13:59:41;3.43;;;0.70;;
27145;SDS011;17980;51.744;7.190;2022-10-16T14:02:14;2.37;;;0.50;;
27145;SDS011;17980;51.744;7.190;2022-10-16T14:04:45;7.10;;;0.93;;
27145;SDS011;17980;51.744;7.190;2022-10-16T14:07:13;1.57;;;0.50;;
27145;SDS011;17980;51.744;7.190;2022-10-16T14:09:47;4.20;;;0.80;;
27145;SDS011;17980;51.744;7.190;2022-10-16T14:12:23;3.53;;;0.93;;
27145;SDS011;17980;51.744;7.190;2022-10-16T14:14:51;4.07;;;0.60;;
27145;SDS011;17980;51.744;7.190;2022-10-16T14:17:29;3.43;;;1.30;;
27145;SDS011;17980;51.744;7.190;2022-10-16T14:19:59;3.80;;;0.90;;
27145;SDS011;17980;51.744;7.190;2022-10-16T14:22:30;8.37;;;1.70;;
27145;SDS011;17980;51.744;7.190;2022-10-16T14:24:59;4.13;;;0.60;;
27145;SDS011;17980;51.744;7.190;2022-10-16T14:27:29;1.33;;;0.67;;
27145;SDS011;17980;51.744;7.190;2022-10-16T14:30:09;0.77;;;0.40;;
27145;SDS011;17980;51.744;7.190;2022-10-16T14:32:55;2.60;;;0.60;;
27145;SDS011;17980;51.744;7.190;2022-10-16T14:35:25;3.63;;;0.60;;
27145;SDS011;17980;51.744;7.190;2022-10-16T14:37:54;6.03;;;1.20;;
27145;SDS011;17980;51.744;7.190;2022-10-16T14:40:24;6.10;;;1.37;;
27145;SDS011;17980;51.744;7.190;2022-10-16T14:43:01;5.13;;;1.00;;
27145;SDS011;17980;51.744;7.190;2022-10-16T14:45:30;2.63;;;0.70;;
27145;SDS011;17980;51.744;7.190;2022-10-16T14:48:14;4.40;;;1.90;;
27145;SDS011;17980;51.744;7.190;2022-10-16T14:50:44;3.07;;;1.00;;
27145;SDS011;17980;51.744;7.190;2022-10-16T14:53:11;12.73;;;1.80;;
27145;SDS011;17980;51.744;7.190;2022-10-16T14:55:38;4.93;;;1.20;;
27145;SDS011;17980;51.744;7.190;2022-10-16T14:58:08;5.63;;;1.67;;
27145;SDS011;17980;51.744;7.190;2022-10-16T15:00:39;9.90;;;2.00;;
27145;SDS011;17980;51.744;7.190;2022-10-16T15:03:06;7.40;;;2.20;;
27145;SDS011;17980;51.744;7.190;2022-10-16T15:05:43;5.27;;;1.30;;
27145;SDS011;17980;51.744;7.190;2022-10-16T15:08:10;3.57;;;1.53;;
27145;SDS011;17980;51.744;7.190;2022-10-16T15:10:47;3.13;;;1.50;;
27145;SDS011;17980;51.744;7.190;2022-10-16T15:13:14;1.93;;;0.83;;
27145;SDS011;17980;51.744;7.190;2022-10-16T15:15:51;2.57;;;0.87;;
27145;SDS011;17980;51.744;7.190;2022-10-16T15:18:20;6.87;;;1.20;;
27145;SDS011;17980;51.744;7.190;2022-10-16T15:20:48;3.80;;;1.00;;
27145;SDS011;17980;51.744;7.190;2022-10-16T15:23:25;2.00;;;0.80;;
27145;SDS011;17980;51.744;7.190;2022-10-16T15:25:53;5.47;;;1.37;;
27145;SDS011;17980;51.744;7.190;2022-10-16T15:30:58;1.70;;;0.90;;
27145;SDS011;17980;51.744;7.190;2022-10-16T15:33:34;4.13;;;1.03;;
27145;SDS011;17980;51.744;7.190;2022-10-16T15:36:02;6.53;;;1.37;;
27145;SDS011;17980;51.744;7.190;2022-10-16T15:38:30;4.17;;;0.80;;
27145;SDS011;17980;51.744;7.190;2022-10-16T15:41:07;5.50;;;1.13;;